sensor_id;sensor_type;location;lat;lon;timestamp;temperature;humidity
15239;DHT22;7722;53.274;9.500;2023-09-07T13:38:39;32.80;76.50
15239;DHT22;7722;53.274;9.500;2023-09-07T13:41:07;32.90;76.50
15239;DHT22;7722;53.274;9.500;2023-09-07T13:43:33;33.10;76.30
15239;DHT22;7722;53.274;9.500;2023-09-07T13:46:00;32.90;75.50
15239;DHT22;7722;53.274;9.500;2023-09-07T13:48:27;32.60;74.70
15239;DHT22;7722;53.274;9.500;2023-09-07T13:50:55;32.70;75.30
15239;DHT22;7722;53.274;9.500;2023-09-07T13:53:22;32.50;76.90
15239;DHT22;7722;53.274;9.500;2023-09-07T13:55:51;32.40;77.30
15239;DHT22;7722;53.274;9.500;2023-09-07T13:58:18;32.60;76.70
15239;DHT22;7722;53.274;9.500;2023-09-07T14:00:45;32.50;79.00
15239;DHT22;7722;53.274;9.500;2023-09-07T14:03:12;32.70;77.00
15239;DHT22;7722;53.274;9.500;2023-09-07T14:05:39;33.00;76.90
15239;DHT22;7722;53.274;9.500;2023-09-07T14:08:06;32.90;76.70
15239;DHT22;7722;53.274;9.500;2023-09-07T14:10:33;32.80;77.10
15239;DHT22;7722;53.274;9.500;2023-09-07T14:13:02;32.30;77.90
15239;DHT22;7722;53.274;9.500;2023-09-07T14:15:29;32.30;78.40
15239;DHT22;7722;53.274;9.500;2023-09-07T14:17:56;32.30;79.50
15239;DHT22;7722;53.274;9.500;2023-09-07T14:20:23;32.10;79.10
15239;DHT22;7722;53.274;9.500;2023-09-07T14:22:50;31.80;79.30
15239;DHT22;7722;53.274;9.500;2023-09-07T14:25:19;31.20;78.50
15239;DHT22;7722;53.274;9.500;2023-09-07T14:27:46;31.20;79.40
15239;DHT22;7722;53.274;9.500;2023-09-07T14:30:14;31.00;80.70
15239;DHT22;7722;53.274;9.500;2023-09-07T14:32:42;30.80;82.90
15239;DHT22;7722;53.274;9.500;2023-09-07T14:35:09;30.70;82.90
15239;DHT22;7722;53.274;9.500;2023-09-07T14:37:36;30.20;82.20
15239;DHT22;7722;53.274;9.500;2023-09-07T14:40:04;30.00;82.60
15239;DHT22;7722;53.274;9.500;2023-09-07T14:42:33;29.80;83.00
15239;DHT22;7722;53.274;9.500;2023-09-07T14:45:00;29.80;83.00
15239;DHT22;7722;53.274;9.500;2023-09-07T14:47:29;29.80;84.20
15239;DHT22;7722;53.274;9.500;2023-09-07T14:49:56;29.80;84.40
15239;DHT22;7722;53.274;9.500;2023-09-07T14:52:23;29.70;83.60
15239;DHT22;7722;53.274;9.500;2023-09-07T14:54:50;29.50;83.90
15239;DHT22;7722;53.274;9.500;2023-09-07T14:57:17;29.50;84.40
15239;DHT22;7722;53.274;9.500;2023-09-07T14:59:44;29.40;84.30
15239;DHT22;7722;53.274;9.500;2023-09-07T15:02:11;29.50;84.10
15239;DHT22;7722;53.274;9.500;2023-09-07T15:04:40;29.40;83.00
15239;DHT22;7722;53.274;9.500;2023-09-07T15:07:08;29.30;84.10
15239;DHT22;7722;53.274;9.500;2023-09-07T15:09:35;29.30;83.30
15239;DHT22;7722;53.274;9.500;2023-09-07T15:12:02;29.30;84.80
15239;DHT22;7722;53.274;9.500;2023-09-07T15:14:30;29.30;84.10
15239;DHT22;7722;53.274;9.500;2023-09-07T15:16:57;29.10;84.20
15239;DHT22;7722;53.274;9.500;2023-09-07T15:19:24;29.20;85.00
15239;DHT22;7722;53.274;9.500;2023-09-07T15:21:52;29.30;84.70
15239;DHT22;7722;53.274;9.500;2023-09-07T15:24:19;29.20;84.70
15239;DHT22;7722;53.274;9.500;2023-09-07T15:26:46;29.20;85.40
15239;DHT22;7722;53.274;9.500;2023-09-07T15:29:13;29.10;83.80
15239;DHT22;7722;53.274;9.500;2023-09-07T15:31:40;29.20;85.60
15239;DHT22;7722;53.274;9.500;2023-09-07T15:34:07;29.00;85.20
15239;DHT22;7722;53.274;9.500;2023-09-07T15:36:34;28.90;85.10
15239;DHT22;7722;53.274;9.500;2023-09-07T15:39:03;28.90;86.30
15239;DHT22;7722;53.274;9.500;2023-09-07T15:41:31;28.80;87.10
15239;DHT22;7722;53.274;9.500;2023-09-07T15:43:57;28.70;86.60
15239;DHT22;7722;53.274;9.500;2023-09-07T15:46:25;28.70;86.90
15239;DHT22;7722;53.274;9.500;2023-09-07T15:48:52;28.80;88.10
15239;DHT22;7722;53.274;9.500;2023-09-07T15:51:19;28.90;85.70
15239;DHT22;7722;53.274;9.500;2023-09-07T15:53:46;28.90;85.60
15239;DHT22;7722;53.274;9.500;2023-09-07T15:56:15;28.80;85.80
15239;DHT22;7722;53.274;9.500;2023-09-07T15:58:42;28.80;86.00
15239;DHT22;7722;53.274;9.500;2023-09-07T16:01:09;28.70;85.90
15239;DHT22;7722;53.274;9.500;2023-09-07T16:03:36;28.80;87.30
15239;DHT22;7722;53.274;9.500;2023-09-07T16:06:04;28.70;85.40
15239;DHT22;7722;53.274;9.500;2023-09-07T16:08:31;28.70;85.40
15239;DHT22;7722;53.274;9.500;2023-09-07T16:10:59;28.80;85.60
15239;DHT22;7722;53.274;9.500;2023-09-07T16:13:28;28.70;86.00
15239;DHT22;7722;53.274;9.500;2023-09-07T16:15:55;28.70;85.80
15239;DHT22;7722;53.274;9.500;2023-09-07T16:18:23;28.70;87.60
15239;DHT22;7722;53.274;9.500;2023-09-07T16:23:58;28.60;86.10
15239;DHT22;7722;53.274;9.500;2023-09-07T16:26:25;28.60;86.60
15239;DHT22;7722;53.274;9.500;2023-09-07T16:28:53;28.50;88.70
15239;DHT22;7722;53.274;9.500;2023-09-07T16:31:20;28.40;85.90
15239;DHT22;7722;53.274;9.500;2023-09-07T16:33:50;28.10;88.30
15239;DHT22;7722;53.274;9.500;2023-09-07T16:36:18;27.80;87.20
15239;DHT22;7722;53.274;9.500;2023-09-07T16:38:46;27.60;87.30
15239;DHT22;7722;53.274;9.500;2023-09-07T16:41:13;27.40;88.40
15239;DHT22;7722;53.274;9.500;2023-09-07T16:43:40;27.20;87.30
15239;DHT22;7722;53.274;9.500;2023-09-07T16:46:08;27.00;87.70
15239;DHT22;7722;53.274;9.500;2023-09-07T16:48:35;26.90;88.20
15239;DHT22;7722;53.274;9.500;2023-09-07T16:51:02;26.80;90.30
15239;DHT22;7722;53.274;9.500;2023-09-07T16:53:29;26.70;90.00
15239;DHT22;7722;53.274;9.500;2023-09-07T16:55:57;26.50;90.20
15239;DHT22;7722;53.274;9.500;2023-09-07T16:58:24;26.40;90.40
15239;DHT22;7722;53.274;9.500;2023-09-07T17:00:51;26.30;90.80
15239;DHT22;7722;53.274;9.500;2023-09-07T17:03:19;26.20;91.00
15239;DHT22;7722;53.274;9.500;2023-09-07T17:05:55;26.20;91.30
15239;DHT22;7722;53.274;9.500;2023-09-07T17:08:22;26.00;92.30
15239;DHT22;7722;53.274;9.500;2023-09-07T17:10:50;25.90;92.30
15239;DHT22;7722;53.274;9.500;2023-09-07T17:13:17;25.70;92.80
15239;DHT22;7722;53.274;9.500;2023-09-07T17:15:47;25.60;93.20
15239;DHT22;7722;53.274;9.500;2023-09-07T17:18:14;25.50;93.20
15239;DHT22;7722;53.274;9.500;2023-09-07T17:20:43;25.30;93.40
15239;DHT22;7722;53.274;9.500;2023-09-07T17:23:10;25.20;93.30
15239;DHT22;7722;53.274;9.500;2023-09-07T17:25:37;25.30;94.20
15239;DHT22;7722;53.274;9.500;2023-09-07T17:28:04;25.30;94.30
15239;DHT22;7722;53.274;9.500;2023-09-07T17:30:33;25.20;93.70
15239;DHT22;7722;53.274;9.500;2023-09-07T17:33:00;25.10;93.80
15239;DHT22;7722;53.274;9.500;2023-09-07T17:35:27;25.00;94.20
15239;DHT22;7722;53.274;9.500;2023-09-07T17:37:56;24.80;93.90
15239;DHT22;7722;53.274;9.500;2023-09-07T17:40:23;24.70;94.40
15239;DHT22;7722;53.274;9.500;2023-09-07T17:42:50;24.60;94.90
15239;DHT22;7722;53.274;9.500;2023-09-07T17:45:17;24.50;95.50
15239;DHT22;7722;53.274;9.500;2023-09-07T17:47:44;24.40;95.60
